createdAt,value
2023-02-19T00:00:08.928Z,6.40
2023-02-19T00:00:36.011Z,6.40
2023-02-19T00:01:12.809Z,6.40
2023-02-19T00:01:36.107Z,6.29
2023-02-19T00:01:59.857Z,6.29
2023-02-19T00:02:32.337Z,6.29
2023-02-19T00:03:03.943Z,6.29
2023-02-19T00:03:37.425Z,6.44
2023-02-19T00:04:08.303Z,6.29
2023-02-19T00:04:36.157Z,6.44
2023-02-19T00:04:57.092Z,6.44
2023-02-19T00:05:28.388Z,6.44
2023-02-19T00:05:59.662Z,6.44
2023-02-19T00:06:32.103Z,6.44
2023-02-19T00:07:03.929Z,6.44
2023-02-19T00:07:35.693Z,6.44
2023-02-19T00:08:07.893Z,6.44
2023-02-19T00:08:35.943Z,6.33
2023-02-19T00:08:55.599Z,6.33
2023-02-19T00:09:27.806Z,6.33
2023-02-19T00:10:00.120Z,6.33
2023-02-19T00:10:32.732Z,6.33
2023-02-19T00:11:03.807Z,6.33
2023-02-19T00:11:35.592Z,6.33
2023-02-19T00:12:07.807Z,6.33
2023-02-19T00:12:36.104Z,6.33
2023-02-19T00:12:55.887Z,6.33
2023-02-19T00:13:28.061Z,6.33
2023-02-19T00:14:00.014Z,6.33
2023-02-19T00:14:32.377Z,6.33
2023-02-19T00:15:05.470Z,6.33
2023-02-19T00:15:35.742Z,6.33
2023-02-19T00:16:07.979Z,6.33
2023-02-19T00:16:36.025Z,6.33
2023-02-19T00:16:55.763Z,6.33
2023-02-19T00:17:28.084Z,6.33
2023-02-19T00:17:59.766Z,6.33
2023-02-19T00:18:32.170Z,6.33
2023-02-19T00:19:03.793Z,6.33
2023-02-19T00:19:36.225Z,6.33
2023-02-19T00:20:08.423Z,6.33
2023-02-19T00:20:35.968Z,6.33
2023-02-19T00:20:56.077Z,6.37
2023-02-19T00:21:28.133Z,6.22
2023-02-19T00:21:59.677Z,6.37
2023-02-19T00:22:32.105Z,6.22
2023-02-19T00:23:03.910Z,6.22
2023-02-19T00:23:36.028Z,6.37
2023-02-19T00:24:07.860Z,6.22
2023-02-19T00:24:36.042Z,6.22
2023-02-19T00:24:55.614Z,6.22
2023-02-19T00:25:28.445Z,6.22
2023-02-19T00:26:12.330Z,6.22
2023-02-19T00:26:32.126Z,6.37
2023-02-19T00:27:03.977Z,6.37
2023-02-19T00:27:35.625Z,6.37
2023-02-19T00:28:07.784Z,6.37
2023-02-19T00:28:36.044Z,6.37
2023-02-19T00:28:55.602Z,6.37
2023-02-19T00:29:28.001Z,6.37
2023-02-19T00:30:01.310Z,6.37
2023-02-19T00:30:32.471Z,6.37
2023-02-19T00:31:03.885Z,6.37
2023-02-19T00:31:35.922Z,6.37
2023-02-19T00:32:07.824Z,6.37
2023-02-19T00:32:35.900Z,6.37
2023-02-19T00:32:55.767Z,6.37
2023-02-19T00:33:27.930Z,6.37
2023-02-19T00:33:59.722Z,6.37
2023-02-19T00:34:32.721Z,6.37
2023-02-19T00:35:06.053Z,6.37
2023-02-19T00:35:35.653Z,6.37
2023-02-19T00:36:08.033Z,6.37
2023-02-19T00:36:36.309Z,6.37
2023-02-19T00:36:55.751Z,6.37
2023-02-19T00:37:27.792Z,6.37
2023-02-19T00:37:59.785Z,6.37
2023-02-19T00:38:32.165Z,6.37
2023-02-19T00:39:03.787Z,6.37
2023-02-19T00:39:35.925Z,6.37
2023-02-19T00:40:08.538Z,6.37
2023-02-19T00:40:36.027Z,6.37
2023-02-19T00:40:55.950Z,6.37
2023-02-19T00:41:27.813Z,6.37
2023-02-19T00:41:59.650Z,6.37
2023-02-19T00:42:31.965Z,6.37
2023-02-19T00:43:03.812Z,6.37
2023-02-19T00:43:36.260Z,6.37
2023-02-19T00:44:07.823Z,6.37
2023-02-19T00:44:35.840Z,6.37
2023-02-19T00:44:55.722Z,6.37
2023-02-19T00:45:28.596Z,6.37
2023-02-19T00:45:59.596Z,6.37
2023-02-19T00:46:32.017Z,6.22
2023-02-19T00:47:03.812Z,6.22
2023-02-19T00:47:35.949Z,6.22
2023-02-19T00:48:07.910Z,6.33
2023-02-19T00:48:35.878Z,6.33
2023-02-19T00:48:55.692Z,6.33
2023-02-19T00:49:27.885Z,6.33
2023-02-19T00:49:59.668Z,6.33
2023-02-19T00:50:32.594Z,6.33
2023-02-19T00:51:03.824Z,6.44
2023-02-19T00:51:35.602Z,6.44
2023-02-19T00:52:07.872Z,6.44
2023-02-19T00:52:35.903Z,6.44
2023-02-19T00:52:55.501Z,6.44
2023-02-19T00:53:28.092Z,6.44
2023-02-19T00:53:59.836Z,6.44
2023-02-19T00:54:31.889Z,6.44
2023-02-19T00:55:05.061Z,6.44
2023-02-19T00:55:35.608Z,6.44
2023-02-19T00:56:08.224Z,6.44
2023-02-19T00:56:36.959Z,6.44
2023-02-19T00:56:55.885Z,6.44
2023-02-19T00:57:28.752Z,6.44
2023-02-19T00:58:00.597Z,6.44
2023-02-19T00:58:33.433Z,6.44
2023-02-19T00:59:04.296Z,6.44
2023-02-19T00:59:37.370Z,6.44
2023-02-19T01:00:09.083Z,6.44
2023-02-19T01:00:36.128Z,6.44
2023-02-19T01:00:56.976Z,6.44
2023-02-19T01:01:28.733Z,6.44
2023-02-19T01:02:00.046Z,6.44
2023-02-19T01:02:33.367Z,6.44
2023-02-19T01:03:05.072Z,6.44
2023-02-19T01:03:35.873Z,6.44
2023-02-19T01:04:08.193Z,6.44
2023-02-19T01:04:36.610Z,6.44
2023-02-19T01:04:57.175Z,6.44
2023-02-19T01:05:28.431Z,6.44
2023-02-19T01:05:59.684Z,6.44
2023-02-19T01:06:32.046Z,6.44
2023-02-19T01:07:04.175Z,6.44
2023-02-19T01:07:35.728Z,6.44
2023-02-19T01:08:08.015Z,6.44
2023-02-19T01:08:36.292Z,6.44
2023-02-19T01:08:55.848Z,6.55
2023-02-19T01:09:27.810Z,6.44
2023-02-19T01:09:59.524Z,6.44
2023-02-19T01:10:32.543Z,6.44
2023-02-19T01:11:03.947Z,6.44
2023-02-19T01:11:36.108Z,6.44
2023-02-19T01:12:07.949Z,6.44
2023-02-19T01:12:35.928Z,6.44
2023-02-19T01:12:55.850Z,6.44
2023-02-19T01:13:27.856Z,6.44
2023-02-19T01:13:59.505Z,6.44
2023-02-19T01:14:32.059Z,6.44
2023-02-19T01:15:05.896Z,6.44
2023-02-19T01:15:37.117Z,6.44
2023-02-19T01:16:08.120Z,6.44
2023-02-19T01:16:37.252Z,6.44
2023-02-19T01:16:57.058Z,6.44
2023-02-19T01:17:29.633Z,6.44
2023-02-19T01:18:00.199Z,6.44
2023-02-19T01:18:32.277Z,6.44
2023-02-19T01:19:04.264Z,6.44
2023-02-19T01:19:35.644Z,6.55
2023-02-19T01:20:08.329Z,6.55
2023-02-19T01:20:36.134Z,6.55
2023-02-19T01:20:56.195Z,6.55
2023-02-19T01:21:27.951Z,6.55
2023-02-19T01:22:01.952Z,6.55
2023-02-19T01:22:32.546Z,6.55
2023-02-19T01:23:03.853Z,6.55
2023-02-19T01:23:35.965Z,6.55
2023-02-19T01:24:08.506Z,6.55
2023-02-19T01:24:37.216Z,6.55
2023-02-19T01:24:56.739Z,6.55
2023-02-19T01:25:28.849Z,6.55
2023-02-19T01:26:02.004Z,6.55
2023-02-19T01:26:32.013Z,6.55
2023-02-19T01:27:03.976Z,6.55
2023-02-19T01:27:35.772Z,6.55
2023-02-19T01:28:07.911Z,6.55
2023-02-19T01:28:35.730Z,6.55
2023-02-19T01:28:56.062Z,6.55
2023-02-19T01:29:27.841Z,6.55
2023-02-19T01:29:59.693Z,6.55
2023-02-19T01:30:33.010Z,6.55
2023-02-19T01:31:04.028Z,6.55
2023-02-19T01:31:35.892Z,6.55
2023-02-19T01:32:07.998Z,6.55
2023-02-19T01:32:35.769Z,6.55
2023-02-19T01:32:55.591Z,6.55
2023-02-19T01:33:27.932Z,6.55
2023-02-19T01:33:59.976Z,6.55
2023-02-19T01:34:32.254Z,6.55
2023-02-19T01:35:05.137Z,6.55
2023-02-19T01:35:36.132Z,6.55
2023-02-19T01:36:07.909Z,6.55
2023-02-19T01:36:37.857Z,6.40
2023-02-19T01:36:57.813Z,6.40
2023-02-19T01:37:28.213Z,6.40
2023-02-19T01:38:00.720Z,6.40
2023-02-19T01:38:32.461Z,6.40
2023-02-19T01:39:04.519Z,6.40
2023-02-19T01:39:37.943Z,6.40
2023-02-19T01:40:08.409Z,6.40
2023-02-19T01:40:36.897Z,6.40
2023-02-19T01:40:58.267Z,6.40
2023-02-19T01:41:28.358Z,6.40
2023-02-19T01:42:00.132Z,6.40
2023-02-19T01:42:32.421Z,6.40
2023-02-19T01:43:04.228Z,6.40
2023-02-19T01:43:38.048Z,6.40
2023-02-19T01:44:08.733Z,6.51
2023-02-19T01:44:36.575Z,6.51
2023-02-19T01:44:56.529Z,6.40
2023-02-19T01:45:29.713Z,6.51
2023-02-19T01:46:00.105Z,6.40
2023-02-19T01:46:32.483Z,6.40
2023-02-19T01:47:04.525Z,6.40
2023-02-19T01:47:36.474Z,6.40
2023-02-19T01:48:08.858Z,6.40
2023-02-19T01:48:36.761Z,6.51
2023-02-19T01:48:56.386Z,6.51
2023-02-19T01:49:28.248Z,6.51
2023-02-19T01:50:01.876Z,6.51
2023-02-19T01:50:32.456Z,6.51
2023-02-19T01:51:03.879Z,6.51
2023-02-19T01:51:37.738Z,6.51
2023-02-19T01:52:08.319Z,6.51
2023-02-19T01:52:37.164Z,6.51
2023-02-19T01:52:55.609Z,6.51
2023-02-19T01:53:28.303Z,6.51
2023-02-19T01:54:00.008Z,6.51
2023-02-19T01:54:33.291Z,6.51
2023-02-19T01:55:05.359Z,6.51
2023-02-19T01:55:36.031Z,6.51
2023-02-19T01:56:08.763Z,6.51
2023-02-19T01:56:36.951Z,6.51
2023-02-19T01:56:57.303Z,6.51
2023-02-19T01:57:28.357Z,6.51
2023-02-19T01:58:00.107Z,6.51
2023-02-19T01:58:33.926Z,6.51
2023-02-19T01:59:05.318Z,6.51
2023-02-19T01:59:36.645Z,6.51
2023-02-19T02:00:10.170Z,6.51
2023-02-19T02:00:37.523Z,6.51
2023-02-19T02:00:57.502Z,6.51
2023-02-19T02:01:28.092Z,6.51
2023-02-19T02:02:00.269Z,6.51
2023-02-19T02:02:32.032Z,6.51
2023-02-19T02:03:04.074Z,6.51
2023-02-19T02:03:36.145Z,6.51
2023-02-19T02:04:08.093Z,6.51
2023-02-19T02:04:35.867Z,6.51
2023-02-19T02:04:55.881Z,6.51
2023-02-19T02:05:28.342Z,6.51
2023-02-19T02:05:59.546Z,6.51
2023-02-19T02:06:32.108Z,6.51
2023-02-19T02:07:03.972Z,6.51
2023-02-19T02:07:35.744Z,6.40
2023-02-19T02:08:07.856Z,6.40
2023-02-19T02:08:35.877Z,6.40
2023-02-19T02:08:55.604Z,6.40
2023-02-19T02:09:28.393Z,6.40
2023-02-19T02:09:59.963Z,6.40
2023-02-19T02:10:32.478Z,6.40
2023-02-19T02:11:04.767Z,6.40
2023-02-19T02:11:37.468Z,6.40
2023-02-19T02:12:09.947Z,6.40
2023-02-19T02:12:38.016Z,6.51
2023-02-19T02:12:56.437Z,6.51
2023-02-19T02:13:29.457Z,6.51
2023-02-19T02:14:00.117Z,6.51
2023-02-19T02:14:32.155Z,6.51
2023-02-19T02:15:05.416Z,6.51
2023-02-19T02:15:35.957Z,6.51
2023-02-19T02:16:07.851Z,6.51
2023-02-19T02:16:35.944Z,6.51
2023-02-19T02:16:55.557Z,6.35
2023-02-19T02:17:27.791Z,6.35
2023-02-19T02:17:59.749Z,6.35
2023-02-19T02:18:32.200Z,6.35
2023-02-19T02:19:03.836Z,6.35
2023-02-19T02:19:35.659Z,6.35
2023-02-19T02:20:08.449Z,6.35
2023-02-19T02:20:35.867Z,6.35
2023-02-19T02:20:55.956Z,6.35
2023-02-19T02:21:27.910Z,6.35
2023-02-19T02:22:00.114Z,6.35
2023-02-19T02:22:32.174Z,6.35
2023-02-19T02:23:03.923Z,6.39
2023-02-19T02:23:35.588Z,6.39
2023-02-19T02:24:08.103Z,6.39
2023-02-19T02:24:35.920Z,6.39
2023-02-19T02:24:55.631Z,6.39
2023-02-19T02:25:28.371Z,6.39
2023-02-19T02:25:59.846Z,6.39
2023-02-19T02:26:31.983Z,6.39
2023-02-19T02:27:03.901Z,6.39
2023-02-19T02:27:35.696Z,6.39
2023-02-19T02:28:07.930Z,6.39
2023-02-19T02:28:35.786Z,6.39
2023-02-19T02:28:55.535Z,6.39
2023-02-19T02:29:27.931Z,6.39
2023-02-19T02:29:59.682Z,6.39
2023-02-19T02:30:32.792Z,6.39
2023-02-19T02:31:04.776Z,6.23
2023-02-19T02:31:36.753Z,6.23
2023-02-19T02:32:08.295Z,6.23
2023-02-19T02:32:36.698Z,6.23
2023-02-19T02:32:55.797Z,6.23
2023-02-19T02:33:28.019Z,6.23
2023-02-19T02:34:00.060Z,6.23
2023-02-19T02:34:31.977Z,6.34
2023-02-19T02:35:05.422Z,6.34
2023-02-19T02:35:35.781Z,6.34
2023-02-19T02:36:07.920Z,6.34
2023-02-19T02:36:35.765Z,6.34
2023-02-19T02:36:55.728Z,6.34
2023-02-19T02:37:27.902Z,6.34
2023-02-19T02:37:59.640Z,6.34
2023-02-19T02:38:32.004Z,6.34
2023-02-19T02:39:03.850Z,6.19
2023-02-19T02:39:35.844Z,6.30
2023-02-19T02:40:08.299Z,6.30
2023-02-19T02:40:35.780Z,6.30
2023-02-19T02:40:56.114Z,6.30
2023-02-19T02:41:27.889Z,6.30
2023-02-19T02:41:59.705Z,6.30
2023-02-19T02:42:33.294Z,6.30
2023-02-19T02:43:04.608Z,6.30
2023-02-19T02:43:35.873Z,6.30
2023-02-19T02:44:08.888Z,6.41
2023-02-19T02:44:38.636Z,6.41
2023-02-19T02:44:56.059Z,6.41
2023-02-19T02:45:29.344Z,6.41
2023-02-19T02:46:02.652Z,6.41
2023-02-19T02:46:33.305Z,6.41
2023-02-19T02:47:04.089Z,6.41
2023-02-19T02:47:35.552Z,6.41
2023-02-19T02:48:08.676Z,6.41
2023-02-19T02:48:37.037Z,6.41
2023-02-19T02:48:55.858Z,6.41
2023-02-19T02:49:29.341Z,6.25
2023-02-19T02:50:03.428Z,6.25
2023-02-19T02:50:32.581Z,6.25
2023-02-19T02:51:04.492Z,6.25
2023-02-19T02:51:37.087Z,6.41
2023-02-19T02:52:08.252Z,6.25
2023-02-19T02:52:36.352Z,6.41
2023-02-19T02:52:56.086Z,6.41
2023-02-19T02:53:28.944Z,6.41
2023-02-19T02:54:00.523Z,6.41
2023-02-19T02:54:33.043Z,6.25
2023-02-19T02:55:05.375Z,6.41
2023-02-19T02:55:35.817Z,6.41
2023-02-19T02:56:07.957Z,6.25
2023-02-19T02:56:35.908Z,6.25
2023-02-19T02:56:55.811Z,6.25
2023-02-19T02:57:27.900Z,6.25
2023-02-19T02:57:59.948Z,6.25
2023-02-19T02:58:32.358Z,6.25
2023-02-19T02:59:04.048Z,6.25
2023-02-19T02:59:35.604Z,6.41
2023-02-19T03:00:08.819Z,6.41
2023-02-19T03:00:35.983Z,6.41
2023-02-19T03:00:56.136Z,6.25
2023-02-19T03:01:27.876Z,6.25
2023-02-19T03:01:59.676Z,6.25
2023-02-19T03:02:32.606Z,6.25
2023-02-19T03:03:04.056Z,6.25
2023-02-19T03:03:35.653Z,6.25
2023-02-19T03:04:07.877Z,6.25
2023-02-19T03:04:36.726Z,6.25
2023-02-19T03:04:55.755Z,6.25
2023-02-19T03:05:28.416Z,6.25
2023-02-19T03:06:00.118Z,6.25
2023-02-19T03:06:32.126Z,6.36
2023-02-19T03:07:03.981Z,6.36
2023-02-19T03:07:35.902Z,6.36
2023-02-19T03:08:07.932Z,6.36
2023-02-19T03:08:36.211Z,6.36
2023-02-19T03:08:55.817Z,6.36
2023-02-19T03:09:28.292Z,6.36
2023-02-19T03:09:59.732Z,6.36
2023-02-19T03:10:32.549Z,6.36
2023-02-19T03:11:03.756Z,6.36
2023-02-19T03:11:35.672Z,6.36
2023-02-19T03:12:07.954Z,6.36
2023-02-19T03:12:35.932Z,6.36
2023-02-19T03:12:55.702Z,6.25
2023-02-19T03:13:28.107Z,6.36
2023-02-19T03:13:59.756Z,6.25
2023-02-19T03:14:32.032Z,6.25
2023-02-19T03:15:05.439Z,6.19
2023-02-19T03:15:36.547Z,6.19
2023-02-19T03:16:07.957Z,6.19
2023-02-19T03:16:36.267Z,6.19
2023-02-19T03:16:55.632Z,6.19
2023-02-19T03:17:27.916Z,6.19
2023-02-19T03:17:59.567Z,6.19
2023-02-19T03:18:32.040Z,6.24
2023-02-19T03:19:03.949Z,6.24
2023-02-19T03:19:36.476Z,6.24
2023-02-19T03:20:08.163Z,6.24
2023-02-19T03:20:36.350Z,6.36
2023-02-19T03:20:56.112Z,6.36
2023-02-19T03:21:27.783Z,6.36
2023-02-19T03:21:59.661Z,6.36
2023-02-19T03:22:32.161Z,6.36
2023-02-19T03:23:03.886Z,6.36
2023-02-19T03:23:35.652Z,6.36
2023-02-19T03:24:07.800Z,6.19
2023-02-19T03:24:35.884Z,6.36
2023-02-19T03:24:55.589Z,6.36
2023-02-19T03:25:28.233Z,6.19
2023-02-19T03:25:59.932Z,6.19
2023-02-19T03:26:32.012Z,6.19
2023-02-19T03:27:03.915Z,6.24
2023-02-19T03:27:35.671Z,6.24
2023-02-19T03:28:07.970Z,6.24
2023-02-19T03:28:36.248Z,6.24
2023-02-19T03:28:55.517Z,6.24
2023-02-19T03:29:27.962Z,6.24
2023-02-19T03:29:59.735Z,6.24
2023-02-19T03:30:32.944Z,6.24
2023-02-19T03:31:03.966Z,6.24
2023-02-19T03:31:36.272Z,6.24
2023-02-19T03:32:08.006Z,6.24
2023-02-19T03:32:35.805Z,6.24
2023-02-19T03:32:55.692Z,6.24
2023-02-19T03:33:28.053Z,6.24
2023-02-19T03:33:59.680Z,6.24
2023-02-19T03:34:32.022Z,6.24
2023-02-19T03:35:05.168Z,6.24
2023-02-19T03:35:35.610Z,6.24
2023-02-19T03:36:07.989Z,6.24
2023-02-19T03:36:35.945Z,6.24
2023-02-19T03:36:55.587Z,6.24
2023-02-19T03:37:27.938Z,6.24
2023-02-19T03:37:59.790Z,6.24
2023-02-19T03:38:32.144Z,6.24
2023-02-19T03:39:03.948Z,6.24
2023-02-19T03:39:35.610Z,6.24
2023-02-19T03:40:08.281Z,6.24
2023-02-19T03:40:36.021Z,6.24
2023-02-19T03:40:56.118Z,6.24
2023-02-19T03:41:27.831Z,6.24
2023-02-19T03:41:59.724Z,6.24
2023-02-19T03:42:32.152Z,6.24
2023-02-19T03:43:03.939Z,6.24
2023-02-19T03:43:35.638Z,6.24
2023-02-19T03:44:07.857Z,6.24
2023-02-19T03:44:35.973Z,6.24
2023-02-19T03:44:55.601Z,6.24
2023-02-19T03:45:28.681Z,6.24
2023-02-19T03:45:59.821Z,6.24
2023-02-19T03:46:32.080Z,6.24
2023-02-19T03:47:03.765Z,6.24
2023-02-19T03:47:36.222Z,6.24
2023-02-19T03:48:07.972Z,6.24
2023-02-19T03:48:36.049Z,6.24
2023-02-19T03:48:55.627Z,6.24
2023-02-19T03:49:27.950Z,6.24
2023-02-19T03:49:59.686Z,6.40
2023-02-19T03:50:32.550Z,6.40
2023-02-19T03:51:03.881Z,6.40
2023-02-19T03:51:35.635Z,6.40
2023-02-19T03:52:07.976Z,6.40
2023-02-19T03:52:36.095Z,6.40
2023-02-19T03:52:56.071Z,6.40
2023-02-19T03:53:27.962Z,6.40
2023-02-19T03:53:59.730Z,6.36
2023-02-19T03:54:31.993Z,6.36
2023-02-19T03:55:05.091Z,6.36
2023-02-19T03:55:35.617Z,6.36
2023-02-19T03:56:08.022Z,6.36
2023-02-19T03:56:35.866Z,6.36
2023-02-19T03:56:55.815Z,6.36
2023-02-19T03:57:28.073Z,6.36
2023-02-19T03:57:59.854Z,6.36
2023-02-19T03:58:32.100Z,6.19
2023-02-19T03:59:03.879Z,6.19
2023-02-19T03:59:35.768Z,6.19
2023-02-19T04:00:08.835Z,6.19
2023-02-19T04:00:35.896Z,6.19
2023-02-19T04:00:56.148Z,6.36
2023-02-19T04:01:27.918Z,6.36
2023-02-19T04:02:00.170Z,6.36
2023-02-19T04:02:32.360Z,6.24
2023-02-19T04:03:04.029Z,6.24
2023-02-19T04:03:35.748Z,6.24
2023-02-19T04:04:07.786Z,6.24
2023-02-19T04:04:35.898Z,6.40
2023-02-19T04:04:55.755Z,6.36
2023-02-19T04:05:28.228Z,6.36
2023-02-19T04:05:59.651Z,6.19
2023-02-19T04:06:32.209Z,6.24
2023-02-19T04:07:04.232Z,6.24
2023-02-19T04:07:35.615Z,6.24
2023-02-19T04:08:07.835Z,6.24
2023-02-19T04:08:35.946Z,6.24
2023-02-19T04:08:55.661Z,6.24
2023-02-19T04:09:27.844Z,6.40
2023-02-19T04:09:59.719Z,6.40
2023-02-19T04:10:32.614Z,6.24
2023-02-19T04:11:04.253Z,6.24
2023-02-19T04:11:35.651Z,6.24
2023-02-19T04:12:08.127Z,6.24
2023-02-19T04:12:35.968Z,6.24
2023-02-19T04:12:55.622Z,6.24
2023-02-19T04:13:27.926Z,6.24
2023-02-19T04:13:59.686Z,6.24
2023-02-19T04:14:31.960Z,6.35
2023-02-19T04:15:05.571Z,6.35
2023-02-19T04:15:35.725Z,6.35
2023-02-19T04:16:08.207Z,6.35
2023-02-19T04:16:36.669Z,6.35
2023-02-19T04:16:55.697Z,6.35
2023-02-19T04:17:27.927Z,6.35
2023-02-19T04:17:59.733Z,6.35
2023-02-19T04:18:32.136Z,6.35
2023-02-19T04:19:03.844Z,6.35
2023-02-19T04:19:35.855Z,6.35
2023-02-19T04:20:08.515Z,6.18
2023-02-19T04:20:36.451Z,6.35
2023-02-19T04:20:56.101Z,6.35
2023-02-19T04:21:28.009Z,6.35
2023-02-19T04:21:59.602Z,6.35
2023-02-19T04:22:32.568Z,6.35
2023-02-19T04:23:03.929Z,6.35
2023-02-19T04:23:35.742Z,6.35
2023-02-19T04:24:07.886Z,6.35
2023-02-19T04:24:35.773Z,6.35
2023-02-19T04:24:55.779Z,6.51
2023-02-19T04:25:28.248Z,6.40
2023-02-19T04:25:59.611Z,6.40
2023-02-19T04:26:32.241Z,6.24
2023-02-19T04:27:03.967Z,6.24
2023-02-19T04:27:36.316Z,6.24
2023-02-19T04:28:07.829Z,6.24
2023-02-19T04:28:36.874Z,6.24
2023-02-19T04:28:55.627Z,6.24
2023-02-19T04:29:27.957Z,6.24
2023-02-19T04:29:59.606Z,6.24
2023-02-19T04:30:33.159Z,6.24
2023-02-19T04:31:04.049Z,6.24
2023-02-19T04:31:35.603Z,6.24
2023-02-19T04:32:08.000Z,6.24
2023-02-19T04:32:35.969Z,6.24
2023-02-19T04:32:55.565Z,6.35
2023-02-19T04:33:27.905Z,6.35
2023-02-19T04:33:59.680Z,6.35
2023-02-19T04:34:32.187Z,6.35
2023-02-19T04:35:04.910Z,6.35
2023-02-19T04:35:35.647Z,6.35
2023-02-19T04:36:07.944Z,6.24
2023-02-19T04:36:35.916Z,6.24
2023-02-19T04:36:55.504Z,6.24
2023-02-19T04:37:28.016Z,6.24
2023-02-19T04:37:59.695Z,6.07
2023-02-19T04:38:32.014Z,6.18
2023-02-19T04:39:03.932Z,6.18
2023-02-19T04:39:36.092Z,6.18
2023-02-19T04:40:08.345Z,6.18
2023-02-19T04:40:35.787Z,6.18
2023-02-19T04:40:56.156Z,6.35
2023-02-19T04:41:27.999Z,6.35
2023-02-19T04:41:59.671Z,6.18
2023-02-19T04:42:32.030Z,6.18
2023-02-19T04:43:03.925Z,6.18
2023-02-19T04:43:35.756Z,6.18
2023-02-19T04:44:07.719Z,6.35
2023-02-19T04:44:35.836Z,6.35
2023-02-19T04:44:55.711Z,6.35
2023-02-19T04:45:28.888Z,6.18
2023-02-19T04:45:59.838Z,6.18
2023-02-19T04:46:32.150Z,6.18
2023-02-19T04:47:03.976Z,6.18
2023-02-19T04:47:35.676Z,6.18
2023-02-19T04:48:07.944Z,6.18
2023-02-19T04:48:36.185Z,6.18
2023-02-19T04:48:55.755Z,6.18
2023-02-19T04:49:27.791Z,6.18
2023-02-19T04:50:00.059Z,6.18
2023-02-19T04:50:32.556Z,6.13
2023-02-19T04:51:03.940Z,6.13
2023-02-19T04:51:35.734Z,6.13
2023-02-19T04:52:07.784Z,6.24
2023-02-19T04:52:36.058Z,6.24
2023-02-19T04:52:55.573Z,6.24
2023-02-19T04:53:28.004Z,6.24
2023-02-19T04:53:59.860Z,6.24
2023-02-19T04:54:32.076Z,6.24
2023-02-19T04:55:04.861Z,6.35
2023-02-19T04:55:35.652Z,6.35
2023-02-19T04:56:07.917Z,6.35
2023-02-19T04:56:35.827Z,6.17
2023-02-19T04:56:55.645Z,6.17
2023-02-19T04:57:28.396Z,6.17
2023-02-19T04:57:59.875Z,6.17
2023-02-19T04:58:32.029Z,6.17
2023-02-19T04:59:03.861Z,6.17
2023-02-19T04:59:35.743Z,6.22
2023-02-19T05:00:08.886Z,6.22
2023-02-19T05:00:35.833Z,6.22
2023-02-19T05:00:56.204Z,6.22
2023-02-19T05:01:28.164Z,6.22
2023-02-19T05:01:59.969Z,6.22
2023-02-19T05:02:32.245Z,6.22
2023-02-19T05:03:04.064Z,6.22
2023-02-19T05:03:35.993Z,6.22
2023-02-19T05:04:07.873Z,6.22
2023-02-19T05:04:35.815Z,6.22
2023-02-19T05:04:55.692Z,6.22
2023-02-19T05:05:28.351Z,6.22
2023-02-19T05:05:59.609Z,6.22
2023-02-19T05:06:32.543Z,6.22
2023-02-19T05:07:03.896Z,6.40
2023-02-19T05:07:35.677Z,6.22
2023-02-19T05:08:07.859Z,6.22
2023-02-19T05:08:36.692Z,6.22
2023-02-19T05:08:55.734Z,6.22
2023-02-19T05:09:27.775Z,6.22
2023-02-19T05:09:59.666Z,6.22
2023-02-19T05:10:32.969Z,6.40
2023-02-19T05:11:04.021Z,6.40
2023-02-19T05:11:35.675Z,6.40
2023-02-19T05:12:08.323Z,6.40
2023-02-19T05:12:36.525Z,6.40
2023-02-19T05:12:57.871Z,6.40
2023-02-19T05:13:28.075Z,6.35
2023-02-19T05:13:59.709Z,6.35
2023-02-19T05:14:32.387Z,6.35
2023-02-19T05:15:05.362Z,6.35
2023-02-19T05:15:36.239Z,6.35
2023-02-19T05:16:07.896Z,6.35
2023-02-19T05:16:36.356Z,6.35
2023-02-19T05:16:55.626Z,6.35
2023-02-19T05:17:28.130Z,6.35
2023-02-19T05:17:59.811Z,6.52
2023-02-19T05:18:32.324Z,6.52
2023-02-19T05:19:03.892Z,6.35
2023-02-19T05:19:36.545Z,6.35
2023-02-19T05:20:08.479Z,6.35
2023-02-19T05:20:36.250Z,6.35
2023-02-19T05:20:56.229Z,6.52
2023-02-19T05:21:28.095Z,6.52
2023-02-19T05:21:59.885Z,6.41
2023-02-19T05:22:32.148Z,6.41
2023-02-19T05:23:03.904Z,6.41
2023-02-19T05:23:35.783Z,6.41
2023-02-19T05:24:07.935Z,6.57
2023-02-19T05:24:35.822Z,6.41
2023-02-19T05:24:55.944Z,6.41
2023-02-19T05:25:28.472Z,6.41
2023-02-19T05:25:59.729Z,6.41
2023-02-19T05:26:32.454Z,6.30
2023-02-19T05:27:03.973Z,6.30
2023-02-19T05:27:36.037Z,6.47
2023-02-19T05:28:07.954Z,6.30
2023-02-19T05:28:35.984Z,6.30
2023-02-19T05:28:55.834Z,6.47
2023-02-19T05:29:27.939Z,6.47
2023-02-19T05:29:59.807Z,6.30
2023-02-19T05:30:33.059Z,6.30
2023-02-19T05:31:04.131Z,6.47
2023-02-19T05:31:36.025Z,6.47
2023-02-19T05:32:08.025Z,6.47
2023-02-19T05:32:35.986Z,6.47
2023-02-19T05:32:55.695Z,6.47
2023-02-19T05:33:28.102Z,6.35
2023-02-19T05:33:59.710Z,6.51
2023-02-19T05:34:32.209Z,6.35
2023-02-19T05:35:05.231Z,6.35
2023-02-19T05:35:35.935Z,6.51
2023-02-19T05:36:07.894Z,6.51
2023-02-19T05:36:36.351Z,6.35
2023-02-19T05:36:55.655Z,6.51
2023-02-19T05:37:28.188Z,6.51
2023-02-19T05:37:59.857Z,6.51
2023-02-19T05:38:32.490Z,6.51
2023-02-19T05:39:03.960Z,6.40
2023-02-19T05:39:36.029Z,6.40
2023-02-19T05:40:08.590Z,6.40
2023-02-19T05:40:35.929Z,6.40
2023-02-19T05:40:56.015Z,6.40
2023-02-19T05:41:27.996Z,6.40
2023-02-19T05:42:00.138Z,6.40
2023-02-19T05:42:32.044Z,6.57
2023-02-19T05:43:03.905Z,6.52
2023-02-19T05:43:35.851Z,6.52
2023-02-19T05:44:07.996Z,6.67
2023-02-19T05:44:36.021Z,6.67
2023-02-19T05:44:55.826Z,6.67
2023-02-19T05:45:28.587Z,6.67
2023-02-19T05:45:59.828Z,6.57
2023-02-19T05:46:32.526Z,6.73
2023-02-19T05:47:03.992Z,6.73
2023-02-19T05:47:35.829Z,6.62
2023-02-19T05:48:08.036Z,6.62
2023-02-19T05:48:36.423Z,6.62
2023-02-19T05:48:55.823Z,6.62
2023-02-19T05:49:28.279Z,6.50
2023-02-19T05:49:59.703Z,6.67
2023-02-19T05:50:32.841Z,6.67
2023-02-19T05:51:04.036Z,6.67
2023-02-19T05:51:35.733Z,6.67
2023-02-19T05:52:07.848Z,6.67
2023-02-19T05:52:36.759Z,6.56
2023-02-19T05:52:55.749Z,6.56
2023-02-19T05:53:27.990Z,6.56
2023-02-19T05:54:00.034Z,6.71
2023-02-19T05:54:32.284Z,6.71
2023-02-19T05:55:05.071Z,6.66
2023-02-19T05:55:35.760Z,6.66
2023-02-19T05:56:08.034Z,6.66
2023-02-19T05:56:35.929Z,6.66
2023-02-19T05:56:56.448Z,6.66
2023-02-19T05:57:28.208Z,6.71
2023-02-19T05:58:00.198Z,6.71
2023-02-19T05:58:32.240Z,6.71
2023-02-19T05:59:04.036Z,6.71
2023-02-19T05:59:35.762Z,6.71
2023-02-19T06:00:08.831Z,6.71
2023-02-19T06:00:36.687Z,6.71
2023-02-19T06:00:56.282Z,6.71
2023-02-19T06:01:28.256Z,6.71
2023-02-19T06:01:59.936Z,6.71
2023-02-19T06:02:32.137Z,6.55
2023-02-19T06:03:03.967Z,6.55
2023-02-19T06:03:35.853Z,6.55
2023-02-19T06:04:08.184Z,6.55
2023-02-19T06:04:35.960Z,6.44
2023-02-19T06:04:55.793Z,6.44
2023-02-19T06:05:28.334Z,6.44
2023-02-19T06:06:00.165Z,6.44
2023-02-19T06:06:32.171Z,6.44
2023-02-19T06:07:04.013Z,6.44
2023-02-19T06:07:35.857Z,6.44
2023-02-19T06:08:07.986Z,6.44
2023-02-19T06:08:35.949Z,6.44
2023-02-19T06:08:55.764Z,6.44
2023-02-19T06:09:27.917Z,6.44
2023-02-19T06:09:59.693Z,6.44
2023-02-19T06:10:32.607Z,6.44
2023-02-19T06:11:04.190Z,6.44
2023-02-19T06:11:35.660Z,6.33
2023-02-19T06:12:08.017Z,6.33
2023-02-19T06:12:36.005Z,6.33
2023-02-19T06:12:55.823Z,6.33
2023-02-19T06:13:28.307Z,6.33
2023-02-19T06:14:00.163Z,6.33
2023-02-19T06:14:32.639Z,6.22
2023-02-19T06:15:06.520Z,6.22
2023-02-19T06:15:36.132Z,6.22
2023-02-19T06:16:08.122Z,6.17
2023-02-19T06:16:36.307Z,6.17
2023-02-19T06:16:55.675Z,6.17
2023-02-19T06:17:28.136Z,6.17
2023-02-19T06:17:59.851Z,6.17
2023-02-19T06:18:32.117Z,6.06
2023-02-19T06:19:03.949Z,6.06
2023-02-19T06:19:35.791Z,6.06
2023-02-19T06:20:08.682Z,5.91
2023-02-19T06:20:35.917Z,6.06
2023-02-19T06:20:56.381Z,5.95
2023-02-19T06:21:27.966Z,5.80
2023-02-19T06:21:59.707Z,5.80
2023-02-19T06:22:32.065Z,5.80
2023-02-19T06:23:03.774Z,5.68
2023-02-19T06:23:36.026Z,5.83
2023-02-19T06:24:08.158Z,5.83
2023-02-19T06:24:36.026Z,5.83
2023-02-19T06:24:55.709Z,5.83
2023-02-19T06:25:28.549Z,5.83
2023-02-19T06:25:59.985Z,5.83
2023-02-19T06:26:32.217Z,5.72
2023-02-19T06:27:03.872Z,5.72
2023-02-19T06:27:37.388Z,5.72
2023-02-19T06:28:08.230Z,5.72
2023-02-19T06:28:36.513Z,5.72
2023-02-19T06:28:55.929Z,5.72
2023-02-19T06:29:28.164Z,5.72
2023-02-19T06:30:00.247Z,5.72
2023-02-19T06:30:33.235Z,5.87
2023-02-19T06:31:04.316Z,5.87
2023-02-19T06:31:36.509Z,5.87
2023-02-19T06:32:08.412Z,5.87
2023-02-19T06:32:36.166Z,5.82
2023-02-19T06:32:56.005Z,5.82
2023-02-19T06:33:28.597Z,5.82
2023-02-19T06:34:01.321Z,5.82
2023-02-19T06:34:32.649Z,5.82
2023-02-19T06:35:05.440Z,5.82
2023-02-19T06:35:36.032Z,5.82
2023-02-19T06:36:08.225Z,5.82
2023-02-19T06:36:36.075Z,5.82
2023-02-19T06:36:57.874Z,5.82
2023-02-19T06:37:28.203Z,5.82
2023-02-19T06:37:59.842Z,5.82
2023-02-19T06:38:32.418Z,5.82
2023-02-19T06:39:04.115Z,5.82